createdAt,value
2022-08-16T05:57:21.127Z,100.00
2022-08-16T06:00:05.697Z,100.00
2022-08-16T06:02:49.037Z,100.00
2022-08-16T06:05:47.322Z,100.00
2022-08-16T06:08:31.520Z,100.00
2022-08-16T06:11:13.625Z,100.00
2022-08-16T06:13:56.515Z,100.00
2022-08-16T06:16:50.535Z,100.00
2022-08-16T06:19:29.822Z,100.00
2022-08-16T06:22:39.515Z,100.00
2022-08-16T06:25:17.979Z,100.00
2022-08-16T06:28:17.299Z,100.00
2022-08-16T06:31:17.655Z,100.00
2022-08-16T06:34:03.027Z,100.00
2022-08-16T06:36:59.741Z,100.00
2022-08-16T06:39:46.697Z,100.00
2022-08-16T06:42:52.795Z,100.00
2022-08-16T06:45:59.406Z,100.00
2022-08-16T06:48:44.014Z,100.00
2022-08-16T06:51:45.179Z,100.00
2022-08-16T06:54:24.084Z,100.00
2022-08-16T06:57:04.231Z,100.00
2022-08-16T06:59:52.231Z,100.00
2022-08-16T07:02:51.764Z,100.00
2022-08-16T07:05:41.446Z,100.00
2022-08-16T07:08:25.544Z,100.00
2022-08-16T07:11:04.699Z,100.00
2022-08-16T07:14:00.270Z,100.00
2022-08-16T07:16:48.908Z,100.00
2022-08-16T07:20:01.363Z,100.00
2022-08-16T07:22:37.642Z,100.00
2022-08-16T07:25:23.027Z,100.00
2022-08-16T07:28:00.788Z,100.00
2022-08-16T07:30:46.678Z,100.00
2022-08-16T07:33:53.711Z,100.00
2022-08-16T07:36:38.914Z,100.00
2022-08-16T07:39:20.394Z,100.00
2022-08-16T07:41:57.606Z,100.00
2022-08-16T07:44:48.953Z,100.00
2022-08-16T07:47:31.706Z,100.00
2022-08-16T07:50:55.907Z,100.00
2022-08-16T07:53:09.127Z,100.00
2022-08-16T07:55:52.556Z,100.00
2022-08-16T07:58:37.915Z,100.00
2022-08-16T08:01:20.239Z,100.00
2022-08-16T08:04:13.052Z,100.00
2022-08-16T08:06:52.546Z,100.00
2022-08-16T08:09:29.861Z,100.00
2022-08-16T08:12:31.915Z,100.00
2022-08-16T08:15:11.647Z,100.00
2022-08-16T08:17:51.226Z,100.00
2022-08-16T08:20:35.535Z,100.00
2022-08-16T08:23:18.223Z,100.00
2022-08-16T08:25:59.191Z,100.00
2022-08-16T08:28:40.275Z,100.00
2022-08-16T08:31:18.927Z,100.00
2022-08-16T08:33:57.115Z,100.00
2022-08-16T08:36:38.435Z,100.00
2022-08-16T08:39:55.055Z,100.00
2022-08-16T08:42:33.768Z,100.00
2022-08-16T08:45:43.128Z,100.00
2022-08-16T08:48:33.123Z,100.00
2022-08-16T08:51:14.447Z,100.00
2022-08-16T08:54:00.997Z,100.00
2022-08-16T08:56:45.672Z,100.00
2022-08-16T08:59:40.700Z,100.00
2022-08-16T09:02:23.155Z,100.00
2022-08-16T09:05:15.259Z,100.00
2022-08-16T09:08:00.312Z,100.00
2022-08-16T09:10:59.201Z,100.00
2022-08-16T09:13:47.141Z,100.00
2022-08-16T09:17:01.366Z,100.00
2022-08-16T09:19:32.857Z,100.00
2022-08-16T09:22:19.952Z,100.00
2022-08-16T09:25:12.378Z,100.00
2022-08-16T09:27:58.125Z,100.00
2022-08-16T09:30:43.962Z,100.00
2022-08-16T09:33:22.137Z,100.00
2022-08-16T09:36:01.718Z,100.00
2022-08-16T09:38:41.245Z,100.00
2022-08-16T09:41:19.573Z,100.00
2022-08-16T09:43:59.632Z,100.00
2022-08-16T09:46:48.178Z,100.00
2022-08-16T09:49:37.146Z,100.00
2022-08-16T09:52:16.917Z,100.00
2022-08-16T09:54:54.935Z,100.00
2022-08-16T10:01:53.195Z,100.00
2022-08-16T10:04:38.894Z,100.00
2022-08-16T10:07:44.561Z,100.00
2022-08-16T10:10:31.066Z,100.00
2022-08-16T10:13:16.344Z,100.00
2022-08-16T10:16:00.455Z,100.00
2022-08-16T10:19:00.676Z,100.00
2022-08-16T10:21:38.654Z,100.00
2022-08-16T10:24:27.945Z,100.00
2022-08-16T10:27:26.453Z,100.00
2022-08-16T10:30:07.095Z,97.58
2022-08-16T10:33:03.256Z,100.00
2022-08-16T10:35:46.515Z,98.17
2022-08-16T10:38:27.337Z,90.68
2022-08-16T10:41:10.295Z,94.42
2022-08-16T10:43:50.349Z,88.08
2022-08-16T10:46:33.774Z,90.77
2022-08-16T10:49:18.517Z,89.85
2022-08-16T10:52:01.809Z,90.13
2022-08-16T10:57:40.241Z,86.61
2022-08-16T11:00:22.701Z,88.37
2022-08-16T11:03:01.216Z,85.06
2022-08-16T11:05:59.599Z,86.93
2022-08-16T11:08:39.630Z,85.59
2022-08-16T11:14:17.195Z,81.53
2022-08-16T11:17:02.077Z,79.67
2022-08-16T11:22:47.459Z,81.40
2022-08-16T11:29:12.291Z,78.45
2022-08-16T11:31:33.024Z,76.52
2022-08-16T11:34:11.626Z,72.91
2022-08-16T11:36:53.998Z,71.83
2022-08-16T11:39:38.585Z,72.64
2022-08-16T11:42:23.131Z,70.99
2022-08-16T11:45:07.725Z,74.11
2022-08-16T11:47:47.433Z,73.75
2022-08-16T11:50:25.811Z,75.26
2022-08-16T11:53:03.688Z,67.88
2022-08-16T11:55:43.984Z,67.10
2022-08-16T11:58:21.388Z,67.99
2022-08-16T12:01:03.307Z,65.46
2022-08-16T12:03:43.636Z,66.00
2022-08-16T12:06:25.102Z,64.78
2022-08-16T12:09:08.053Z,65.32
2022-08-16T12:11:47.295Z,65.65
2022-08-16T12:14:29.965Z,62.91
2022-08-16T12:17:13.153Z,61.26
2022-08-16T12:19:53.782Z,62.02
2022-08-16T12:22:31.457Z,60.97
2022-08-16T12:25:19.288Z,57.39
2022-08-16T12:27:59.003Z,59.04
2022-08-16T12:30:41.779Z,58.26
2022-08-16T12:33:25.581Z,56.70
2022-08-16T12:36:05.644Z,54.52
2022-08-16T12:38:48.596Z,56.54
2022-08-16T12:41:25.954Z,56.66
2022-08-16T12:44:04.692Z,57.42
2022-08-16T12:47:03.589Z,55.90
2022-08-16T12:49:41.952Z,53.10
2022-08-16T12:52:33.170Z,48.95
2022-08-16T12:55:14.390Z,51.44
2022-08-16T12:57:58.520Z,49.34
2022-08-16T13:00:38.321Z,49.70
2022-08-16T13:03:17.587Z,50.47
2022-08-16T13:05:55.935Z,50.54
2022-08-16T13:08:36.354Z,50.95
2022-08-16T13:11:14.708Z,52.45
2022-08-16T13:13:55.129Z,56.89
2022-08-16T13:16:32.332Z,58.17
2022-08-16T13:19:11.030Z,59.15
2022-08-16T13:21:49.979Z,58.62
2022-08-16T13:24:30.158Z,61.40
2022-08-16T13:27:07.188Z,63.41
2022-08-16T13:29:45.489Z,64.24
2022-08-16T13:32:40.095Z,65.76
2022-08-16T13:35:17.448Z,67.29
2022-08-16T13:37:54.908Z,67.41
2022-08-16T13:40:34.628Z,66.42
2022-08-16T13:43:12.149Z,67.20
2022-08-16T13:45:50.559Z,67.58
2022-08-16T13:48:42.867Z,68.35
2022-08-16T13:51:24.241Z,67.28
2022-08-16T13:54:06.206Z,69.46
2022-08-16T13:56:46.413Z,70.51
2022-08-16T13:59:24.287Z,71.71
2022-08-16T14:02:07.111Z,72.48
2022-08-16T14:04:46.488Z,73.36
2022-08-16T14:07:40.638Z,74.74
2022-08-16T14:10:17.790Z,75.82
2022-08-16T14:12:57.280Z,77.39
2022-08-16T14:15:34.549Z,78.22
2022-08-16T14:18:17.414Z,78.49
2022-08-16T14:20:57.018Z,79.74
2022-08-16T14:23:34.555Z,80.79
2022-08-16T14:26:11.788Z,81.78
2022-08-16T14:28:54.544Z,82.86
2022-08-16T14:31:36.177Z,84.00
2022-08-16T14:34:16.288Z,85.86
2022-08-16T14:36:54.128Z,86.57
2022-08-16T14:39:31.387Z,87.68
2022-08-16T14:42:11.698Z,88.91
2022-08-16T14:44:54.181Z,89.63
2022-08-16T14:47:34.929Z,90.75
2022-08-16T14:50:17.322Z,91.76
2022-08-16T14:53:02.021Z,93.60
2022-08-16T14:55:42.723Z,94.26
2022-08-16T14:58:34.796Z,95.83
2022-08-16T15:01:16.420Z,97.22
2022-08-16T15:03:55.291Z,100.00
2022-08-16T15:06:32.291Z,100.00
2022-08-16T15:09:09.540Z,100.00
2022-08-16T15:11:46.820Z,100.00
2022-08-16T15:14:24.058Z,100.00
2022-08-16T15:17:03.550Z,100.00
2022-08-16T15:19:41.669Z,100.00
2022-08-16T15:22:27.162Z,100.00
2022-08-16T15:25:08.498Z,100.00
2022-08-16T15:27:54.849Z,100.00
2022-08-16T15:30:57.949Z,100.00
2022-08-16T15:33:35.287Z,100.00
2022-08-16T15:36:17.983Z,100.00
2022-08-16T15:39:06.859Z,100.00
2022-08-16T15:42:05.797Z,100.00
2022-08-16T15:44:53.041Z,100.00
2022-08-16T15:47:33.747Z,100.00
2022-08-16T15:50:15.816Z,100.00
2022-08-16T15:52:53.847Z,100.00
2022-08-16T15:55:35.321Z,100.00
2022-08-16T15:58:35.179Z,100.00
2022-08-16T16:01:10.506Z,100.00
2022-08-16T16:03:48.357Z,100.00
2022-08-16T16:06:28.933Z,100.00
2022-08-16T16:09:06.874Z,100.00
2022-08-16T16:11:46.698Z,100.00
2022-08-16T16:14:24.995Z,100.00
2022-08-16T16:17:06.585Z,100.00
2022-08-16T16:19:43.703Z,100.00
2022-08-16T16:22:25.247Z,100.00
2022-08-16T16:25:03.187Z,100.00
2022-08-16T16:27:41.558Z,100.00
2022-08-16T16:30:32.693Z,100.00
2022-08-16T16:33:15.555Z,100.00
2022-08-16T16:36:03.697Z,100.00
2022-08-16T16:38:49.327Z,100.00
2022-08-16T16:41:29.404Z,100.00
2022-08-16T16:44:08.143Z,100.00
2022-08-16T16:46:56.624Z,100.00
2022-08-16T16:49:35.129Z,100.00
2022-08-16T16:52:43.521Z,100.00
2022-08-16T16:55:18.779Z,100.00
2022-08-16T16:58:18.175Z,100.00
2022-08-16T17:01:07.333Z,100.00
2022-08-16T17:03:46.180Z,100.00
2022-08-16T17:06:31.861Z,100.00
2022-08-16T17:09:14.399Z,100.00
2022-08-16T17:11:55.498Z,100.00
2022-08-16T17:14:34.543Z,100.00
2022-08-16T17:17:13.381Z,100.00
2022-08-16T17:19:51.129Z,100.00
2022-08-16T17:22:32.771Z,100.00
2022-08-16T17:25:13.849Z,100.00
2022-08-16T17:27:58.753Z,100.00
2022-08-16T17:30:45.207Z,100.00
2022-08-16T17:33:23.279Z,100.00
2022-08-16T17:36:00.447Z,100.00
2022-08-16T17:39:27.328Z,100.00
2022-08-16T17:41:34.567Z,100.00
2022-08-16T17:44:14.228Z,100.00
2022-08-16T17:46:53.022Z,100.00
2022-08-16T17:49:32.181Z,100.00
2022-08-16T17:52:12.082Z,100.00
2022-08-16T17:54:49.450Z,100.00
2022-08-16T17:57:26.701Z,100.00
2022-08-16T18:00:09.567Z,100.00
2022-08-16T18:02:50.691Z,100.00
2022-08-16T18:05:29.961Z,100.00
2022-08-16T18:08:10.109Z,100.00
2022-08-16T18:10:47.940Z,100.00
2022-08-16T18:13:27.501Z,100.00
2022-08-16T18:16:07.831Z,100.00
2022-08-16T18:18:46.500Z,100.00
2022-08-16T18:21:35.537Z,100.00
2022-08-16T18:24:15.212Z,100.00
2022-08-16T18:26:52.070Z,100.00
2022-08-16T18:29:29.857Z,100.00
2022-08-16T18:32:12.593Z,100.00
2022-08-16T18:34:50.350Z,100.00
2022-08-16T18:37:28.338Z,100.00
2022-08-16T18:40:06.514Z,100.00
2022-08-16T18:42:43.616Z,100.00
2022-08-16T18:45:21.205Z,100.00
2022-08-16T18:48:00.681Z,100.00
2022-08-16T18:51:04.844Z,100.00
2022-08-16T18:53:37.370Z,100.00
2022-08-16T18:56:15.173Z,100.00
2022-08-16T18:58:53.634Z,100.00
2022-08-16T19:01:31.923Z,100.00
2022-08-16T19:04:54.822Z,100.00
2022-08-16T19:07:09.566Z,100.00
2022-08-16T19:09:47.153Z,100.00
2022-08-16T19:12:37.949Z,100.00
2022-08-16T19:15:26.882Z,100.00
2022-08-16T19:18:04.641Z,100.00
2022-08-16T19:20:47.215Z,100.00
2022-08-16T19:23:29.301Z,100.00
2022-08-16T19:26:20.284Z,100.00
